Ionia, Michigan
Current Conditions -  °F | °C
As of 2:14 AM on Wednesday 22 Oct 2014 (Local Time) from KY70 Reporting Station
Clear Clear  
Wind Chill: 28°   Ceiling: Unl
Heat Index: 33°   Visibility: 10mi
Dew Point: 32°   Wind: 6mph
Humidity: 93%   Direction: 10°N
Pressure: 30.27"   Gusts: NA
Location:  42.99°N, 85.05°W
Report Text: KY70 220614Z AUTO 01005KT 10SM CLR 01/00 A3027 RMK AO2 T00081002
Loading
Personal Weather Stations






























Interactive Weather Map
Tropical Storm Tracking
New forecast layout! Learn more

10-Day Weather Forecast

Advertisements
Track Severe Weather on mobile